Time;durP1;ratioP1;P1;durP2;ratioP2;P2;SDS_P1;SDS_P2;PMS_P1;PMS_P2;Temp;Humidity;BMP_temperature;BMP_pressure;BME280_temperature;BME280_humidity;BME280_pressure;Samples;Min_cycle;Max_cycle;Signal;HPM_P1;HPM_P2
2023/12/07 00:01:16;;;;;;;46.85;24.83;;;9.80;99.90;;;;;;4994255;28;20080;-81
2023/12/07 00:11:18;;;;;;;57.85;27.67;;;9.80;99.90;;;;;;5013979;28;20056;-81
2023/12/07 00:13:45;;;;;;;53.33;27.73;;;9.80;99.90;;;;;;4992652;28;20496;-83
2023/12/07 00:16:11;;;;;;;38.13;21.02;;;9.80;99.90;;;;;;5010398;28;20502;-80
2023/12/07 00:18:38;;;;;;;31.67;15.73;;;9.80;99.90;;;;;;5013600;28;20088;-80
2023/12/07 00:21:04;;;;;;;31.67;13.60;;;9.90;99.90;;;;;;5013460;28;20032;-79
2023/12/07 00:23:30;;;;;;;30.80;13.55;;;9.90;99.90;;;;;;5012124;28;20096;-80
2023/12/07 00:25:58;;;;;;;28.50;12.73;;;9.90;99.90;;;;;;4982701;28;20480;-80
2023/12/07 00:28:24;;;;;;;25.85;12.10;;;10.00;99.90;;;;;;5013439;28;20092;-80
2023/12/07 00:30:50;;;;;;;28.92;12.27;;;10.00;99.90;;;;;;5008907;28;20114;-80
2023/12/07 00:33:17;;;;;;;20.20;12.05;;;9.90;99.90;;;;;;4991133;28;20030;-80
2023/12/07 00:35:43;;;;;;;26.35;13.93;;;10.00;99.90;;;;;;4989094;28;20042;-80
2023/12/07 00:38:10;;;;;;;30.40;14.73;;;10.00;99.90;;;;;;4992238;28;20483;-80
2023/12/07 00:40:40;;;;;;;24.58;15.63;;;10.10;99.90;;;;;;5013246;28;20030;-80
2023/12/07 00:43:07;;;;;;;29.38;16.92;;;10.10;99.90;;;;;;4995368;28;20045;-80
2023/12/07 00:45:33;;;;;;;33.63;17.10;;;10.10;99.90;;;;;;4972282;28;20026;-80
2023/12/07 00:48:00;;;;;;;32.97;17.60;;;10.10;99.90;;;;;;4975718;28;20038;-81
2023/12/07 00:50:26;;;;;;;36.78;18.73;;;10.10;99.90;;;;;;4992290;28;20063;-82
2023/12/07 00:52:56;;;;;;;35.60;19.70;;;10.10;99.90;;;;;;4976008;28;20037;-81
2023/12/07 00:55:22;;;;;;;39.10;20.63;;;10.10;99.90;;;;;;4991816;28;20517;-81
2023/12/07 00:57:49;;;;;;;37.17;20.13;;;10.10;99.90;;;;;;5013177;28;20494;-81
2023/12/07 01:00:16;;;;;;;36.50;20.58;;;10.10;99.90;;;;;;4979294;28;20034;-81
2023/12/07 01:02:42;;;;;;;39.63;21.20;;;10.10;99.90;;;;;;4995456;28;20022;-81
2023/12/07 01:05:08;;;;;;;40.65;20.88;;;10.10;99.90;;;;;;4975826;28;20034;-84
2023/12/07 01:07:35;;;;;;;40.60;21.27;;;10.10;99.90;;;;;;4975676;28;20039;-81
2023/12/07 01:10:01;;;;;;;35.88;20.58;;;10.10;99.90;;;;;;4992271;28;20037;-82
2023/12/07 01:12:27;;;;;;;40.45;20.42;;;10.00;99.90;;;;;;4978132;28;20121;-82
2023/12/07 01:14:53;;;;;;;38.25;21.02;;;10.00;99.90;;;;;;4970158;28;20050;-82
2023/12/07 01:17:19;;;;;;;41.92;21.63;;;10.00;99.90;;;;;;4995007;28;20475;-82
2023/12/07 01:19:46;;;;;;;32.45;18.00;;;10.00;99.90;;;;;;4978773;28;20061;-82
2023/12/07 01:22:12;;;;;;;34.42;19.88;;;10.10;99.90;;;;;;4979188;28;20109;-81
2023/12/07 01:24:39;;;;;;;31.13;17.13;;;10.10;99.90;;;;;;4975765;28;20391;-82
2023/12/07 01:27:06;;;;;;;28.65;16.55;;;10.10;99.90;;;;;;4989950;28;20029;-82
2023/12/07 01:29:38;;;;;;;34.03;17.73;;;10.10;99.90;;;;;;4978428;28;20026;-81
2023/12/07 01:32:05;;;;;;;32.33;17.63;;;10.10;99.90;;;;;;5013057;28;20026;-81
2023/12/07 01:34:32;;;;;;;32.65;16.75;;;10.10;99.90;;;;;;4978894;28;20125;-82
2023/12/07 01:36:58;;;;;;;31.15;16.65;;;10.00;99.90;;;;;;5012757;28;20022;-81
2023/12/07 01:39:25;;;;;;;31.58;16.50;;;10.10;99.90;;;;;;4978890;28;20022;-82
2023/12/07 01:41:52;;;;;;;32.30;16.02;;;10.10;99.90;;;;;;5022644;28;20506;-81
2023/12/07 01:44:18;;;;;;;29.95;15.43;;;10.10;99.90;;;;;;5027070;28;20068;-81
2023/12/07 01:46:44;;;;;;;28.50;14.38;;;10.10;99.90;;;;;;5032429;28;20104;-82
2023/12/07 01:49:11;;;;;;;24.02;13.88;;;10.10;99.90;;;;;;5014803;28;20474;-81
2023/12/07 01:51:38;;;;;;;27.33;15.32;;;10.10;99.90;;;;;;4998280;28;20029;-81
2023/12/07 01:54:04;;;;;;;26.70;14.15;;;10.10;99.90;;;;;;4993784;28;20056;-82
2023/12/07 01:56:34;;;;;;;22.92;13.38;;;10.20;99.90;;;;;;4978829;28;20034;-82
2023/12/07 01:59:00;;;;;;;26.75;14.82;;;10.20;99.90;;;;;;5012633;28;20033;-82
2023/12/07 02:01:27;;;;;;;34.20;15.48;;;10.20;99.90;;;;;;4998337;28;20034;-82
2023/12/07 02:03:53;;;;;;;23.95;13.65;;;10.20;99.90;;;;;;5001273;28;20434;-82
2023/12/07 02:06:20;;;;;;;23.67;13.80;;;10.30;99.90;;;;;;5017876;28;20032;-82
2023/12/07 02:08:47;;;;;;;28.67;14.18;;;10.20;99.90;;;;;;5001676;28;20033;-82
2023/12/07 02:11:13;;;;;;;24.50;12.50;;;10.20;99.90;;;;;;5001641;28;20107;-82
2023/12/07 02:13:41;;;;;;;27.02;13.93;;;10.10;99.90;;;;;;5016996;28;20021;-81
2023/12/07 02:16:22;;;;;;;24.85;13.65;;;10.10;99.90;;;;;;4998256;28;20030;-81
2023/12/07 02:19:27;;;;;;;23.83;13.32;;;10.00;99.90;;;;;;5014612;28;20029;-81
2023/12/07 02:22:03;;;;;;;29.40;12.82;;;10.00;99.90;;;;;;4982158;28;20034;-82
2023/12/07 02:24:33;;;;;;;26.45;13.85;;;10.10;99.90;;;;;;5017699;28;20504;-82
2023/12/07 02:27:00;;;;;;;26.33;13.23;;;10.10;99.90;;;;;;5001280;28;20029;-82
2023/12/07 02:29:26;;;;;;;28.80;15.43;;;10.00;99.90;;;;;;5017654;28;20052;-82
2023/12/07 02:31:53;;;;;;;29.45;13.95;;;10.00;99.90;;;;;;5001233;28;20033;-82
2023/12/07 02:34:19;;;;;;;24.58;14.10;;;9.90;99.90;;;;;;5017088;28;20021;-82
2023/12/07 02:36:48;;;;;;;24.85;14.75;;;9.90;99.90;;;;;;5001212;28;20036;-82
2023/12/07 02:39:14;;;;;;;31.58;15.35;;;9.90;99.90;;;;;;5032500;28;20384;-81
2023/12/07 02:41:43;;;;;;;36.65;15.80;;;10.00;99.90;;;;;;5034402;28;20077;-81
2023/12/07 02:44:09;;;;;;;25.48;14.63;;;10.00;99.90;;;;;;5012969;28;20080;-82
2023/12/07 02:46:35;;;;;;;26.38;13.77;;;9.90;99.90;;;;;;4997876;28;20022;-81
2023/12/07 02:49:02;;;;;;;30.13;15.77;;;9.90;99.90;;;;;;4981433;28;20060;-82
2023/12/07 02:51:28;;;;;;;29.92;15.13;;;9.90;99.90;;;;;;5015203;28;20022;-82
2023/12/07 02:53:54;;;;;;;33.38;15.23;;;9.90;99.90;;;;;;4981123;28;20099;-82
2023/12/07 02:56:21;;;;;;;26.25;14.60;;;9.80;99.90;;;;;;5033022;28;20509;-81
2023/12/07 02:58:47;;;;;;;28.02;15.70;;;9.80;99.90;;;;;;5017095;28;20048;-82
2023/12/07 03:01:13;;;;;;;33.40;14.70;;;9.80;99.90;;;;;;5034614;28;20026;-81
2023/12/07 03:03:41;;;;;;;27.42;14.20;;;9.80;99.90;;;;;;5016916;28;20623;-82
2023/12/07 03:06:08;;;;;;;27.83;14.70;;;9.80;99.90;;;;;;4997314;28;20041;-81
2023/12/07 03:08:34;;;;;;;30.38;15.02;;;9.80;99.90;;;;;;5034646;28;20048;-81
2023/12/07 03:11:01;;;;;;;35.60;15.98;;;9.80;99.90;;;;;;5034257;28;20105;-81
2023/12/07 03:13:27;;;;;;;28.58;14.75;;;9.80;99.90;;;;;;5034504;28;20025;-82
2023/12/07 03:15:53;;;;;;;37.92;15.57;;;9.80;99.90;;;;;;5034258;28;20029;-81
2023/12/07 03:18:19;;;;;;;29.17;15.05;;;9.80;99.90;;;;;;5000313;28;20022;-81
2023/12/07 03:20:46;;;;;;;28.13;15.05;;;9.80;99.90;;;;;;5000385;28;20030;-82
2023/12/07 03:23:12;;;;;;;26.58;14.25;;;9.80;99.90;;;;;;5000201;28;20120;-81
2023/12/07 03:25:38;;;;;;;28.15;14.93;;;9.80;99.90;;;;;;4984427;28;20038;-82
2023/12/07 03:28:05;;;;;;;35.10;17.30;;;9.70;99.90;;;;;;5010273;28;20387;-82
2023/12/07 03:30:31;;;;;;;28.73;15.32;;;9.70;99.90;;;;;;5015989;28;20026;-82
2023/12/07 03:32:57;;;;;;;26.58;14.18;;;9.70;99.90;;;;;;5016535;28;20053;-81
2023/12/07 03:35:24;;;;;;;34.33;15.82;;;9.70;99.90;;;;;;5020138;28;20040;-81
2023/12/07 03:37:50;;;;;;;30.52;15.40;;;9.70;99.90;;;;;;4990744;28;20072;-81
2023/12/07 03:40:17;;;;;;;34.25;15.02;;;9.60;99.90;;;;;;5027065;28;20034;-82
2023/12/07 03:42:49;;;;;;;31.35;16.65;;;9.60;99.90;;;;;;5012820;28;20042;-81
2023/12/07 03:45:16;;;;;;;31.58;15.52;;;9.60;99.90;;;;;;5005416;28;20029;-82
2023/12/07 03:47:42;;;;;;;37.30;16.45;;;9.60;99.90;;;;;;4999818;28;20025;-81
2023/12/07 03:50:09;;;;;;;27.40;15.05;;;9.50;99.90;;;;;;5016149;28;20028;-81
2023/12/07 03:52:35;;;;;;;27.35;14.38;;;9.50;99.90;;;;;;4999718;28;20063;-81
2023/12/07 03:55:01;;;;;;;31.83;15.05;;;9.50;99.90;;;;;;5005660;28;20041;-81
2023/12/07 03:57:28;;;;;;;29.35;14.23;;;9.50;99.90;;;;;;4980198;28;20040;-81
2023/12/07 03:59:54;;;;;;;27.77;14.80;;;9.50;99.90;;;;;;4996493;28;20057;-82
2023/12/07 04:02:20;;;;;;;28.65;14.98;;;9.50;99.90;;;;;;4996202;28;20026;-82
2023/12/07 04:04:47;;;;;;;30.20;16.17;;;9.40;99.90;;;;;;5001516;28;20030;-82
2023/12/07 04:07:14;;;;;;;32.78;15.93;;;9.40;99.90;;;;;;4999493;28;20032;-82
2023/12/07 04:09:40;;;;;;;29.00;15.55;;;9.40;99.90;;;;;;4999437;28;20033;-81
2023/12/07 04:12:06;;;;;;;33.47;16.60;;;9.40;99.90;;;;;;4999410;28;20057;-80
2023/12/07 04:14:33;;;;;;;35.88;17.15;;;9.30;99.90;;;;;;5027048;28;20032;-81
2023/12/07 04:16:59;;;;;;;35.17;15.45;;;9.20;99.90;;;;;;5012619;28;20028;-87
2023/12/07 04:19:25;;;;;;;35.38;14.95;;;9.30;99.90;;;;;;4996333;28;20033;-83
2023/12/07 04:21:51;;;;;;;33.15;14.45;;;9.20;99.90;;;;;;5012207;28;20028;-82
2023/12/07 04:24:18;;;;;;;25.45;14.95;;;9.20;99.90;;;;;;5015574;28;20393;-83
2023/12/07 04:26:44;;;;;;;34.53;15.93;;;9.20;99.90;;;;;;4995912;28;20112;-81
2023/12/07 04:29:11;;;;;;;29.73;15.43;;;9.10;99.90;;;;;;5009172;28;20029;-82
2023/12/07 04:31:37;;;;;;;31.75;15.20;;;9.10;99.90;;;;;;4999083;28;20056;-83
2023/12/07 04:34:03;;;;;;;33.67;15.32;;;9.10;99.90;;;;;;4997136;28;20033;-82
2023/12/07 04:36:29;;;;;;;30.45;14.73;;;9.10;99.90;;;;;;5012352;28;20026;-84
2023/12/07 04:38:56;;;;;;;31.95;15.23;;;9.10;99.90;;;;;;5012132;28;20064;-83
2023/12/07 04:41:22;;;;;;;25.95;14.35;;;9.10;99.90;;;;;;5011345;28;20038;-82
2023/12/07 04:43:48;;;;;;;29.08;13.55;;;9.10;99.90;;;;;;4995981;28;20033;-83
2023/12/07 04:46:15;;;;;;;25.48;12.95;;;9.10;99.90;;;;;;4998982;28;20413;-82
2023/12/07 04:48:41;;;;;;;24.50;12.55;;;9.10;99.90;;;;;;5015859;28;20033;-82
2023/12/07 04:51:07;;;;;;;21.13;11.80;;;9.10;99.90;;;;;;5015782;28;20505;-83
2023/12/07 04:53:34;;;;;;;18.20;10.18;;;9.00;99.90;;;;;;4998798;28;20030;-82
2023/12/07 04:56:00;;;;;;;22.98;10.23;;;9.00;99.90;;;;;;4981822;28;20121;-82
2023/12/07 04:58:27;;;;;;;19.77;9.35;;;9.00;99.90;;;;;;4995504;28;20110;-82
2023/12/07 05:00:53;;;;;;;16.58;8.93;;;9.00;99.90;;;;;;4995584;28;20033;-81
2023/12/07 05:03:19;;;;;;;21.02;9.50;;;8.90;99.90;;;;;;5013182;28;20033;-81
2023/12/07 05:05:46;;;;;;;18.58;9.15;;;8.90;99.90;;;;;;4988689;28;20069;-82
2023/12/07 05:08:12;;;;;;;17.17;8.88;;;8.90;99.90;;;;;;4979466;28;20119;-82
2023/12/07 05:10:38;;;;;;;16.88;8.60;;;8.80;99.90;;;;;;5011852;28;20080;-82
2023/12/07 05:13:04;;;;;;;13.32;7.32;;;8.80;99.90;;;;;;4976009;28;20077;-82
2023/12/07 05:15:31;;;;;;;12.63;7.78;;;8.80;99.90;;;;;;5007090;28;20487;-82
2023/12/07 05:17:57;;;;;;;14.88;7.82;;;8.80;99.90;;;;;;4995488;28;20034;-81
2023/12/07 05:20:24;;;;;;;12.50;8.57;;;8.80;99.90;;;;;;5013599;28;20140;-83
2023/12/07 05:22:50;;;;;;;19.20;8.00;;;8.70;99.90;;;;;;4998628;28;20032;-81
2023/12/07 05:25:16;;;;;;;11.65;8.18;;;8.70;99.90;;;;;;5014696;28;20034;-80
2023/12/07 05:27:43;;;;;;;15.13;7.85;;;8.70;99.90;;;;;;5032686;28;20021;-81
2023/12/07 05:30:10;;;;;;;12.90;7.88;;;8.70;99.90;;;;;;5014774;28;20033;-83
2023/12/07 05:32:39;;;;;;;13.55;8.05;;;8.60;99.90;;;;;;5022731;28;20124;-81
2023/12/07 05:35:07;;;;;;;14.55;8.13;;;8.60;99.90;;;;;;5014333;28;20483;-81
2023/12/07 05:37:33;;;;;;;11.93;7.97;;;8.50;99.90;;;;;;5018427;28;20037;-81
2023/12/07 05:39:59;;;;;;;14.00;8.68;;;8.50;99.90;;;;;;5018638;28;20052;-81
2023/12/07 05:42:26;;;;;;;15.63;8.70;;;8.50;99.90;;;;;;5015120;28;20064;-81
2023/12/07 05:44:52;;;;;;;16.92;8.63;;;8.40;99.90;;;;;;5022030;28;20530;-81
2023/12/07 05:47:18;;;;;;;14.85;8.43;;;8.40;99.90;;;;;;5018300;28;20395;-81
2023/12/07 05:49:44;;;;;;;11.23;7.97;;;8.40;99.90;;;;;;5018256;28;20109;-81
2023/12/07 05:52:11;;;;;;;11.18;8.50;;;8.30;99.90;;;;;;5018283;28;20033;-81
2023/12/07 05:54:41;;;;;;;13.43;7.95;;;8.30;99.90;;;;;;4998380;28;20065;-81
2023/12/07 05:57:08;;;;;;;12.75;7.95;;;8.20;99.90;;;;;;4998683;28;20037;-81
2023/12/07 05:59:42;;;;;;;12.85;8.50;;;8.20;99.90;;;;;;5016119;28;20034;-81
2023/12/07 06:02:08;;;;;;;13.68;8.23;;;8.20;99.90;;;;;;5014716;28;20034;-81
2023/12/07 06:04:35;;;;;;;13.45;8.10;;;8.10;99.90;;;;;;5020567;28;20075;-81
2023/12/07 06:07:02;;;;;;;13.05;8.60;;;8.10;99.90;;;;;;5017978;28;20112;-81
2023/12/07 06:09:28;;;;;;;15.68;9.52;;;8.10;99.90;;;;;;5017969;28;20032;-81
2023/12/07 06:11:55;;;;;;;15.45;9.35;;;8.00;99.90;;;;;;5017877;28;20033;-81
2023/12/07 06:14:22;;;;;;;11.95;8.98;;;8.00;99.90;;;;;;5032683;28;20032;-82
2023/12/07 06:16:49;;;;;;;12.13;9.15;;;7.90;99.90;;;;;;4982025;28;20029;-83
2023/12/07 06:19:15;;;;;;;15.40;10.52;;;7.90;99.90;;;;;;4981868;28;20026;-82
2023/12/07 06:21:49;;;;;;;15.52;10.18;;;7.90;99.90;;;;;;4997198;28;20053;-81
2023/12/07 06:24:17;;;;;;;15.60;10.57;;;7.80;99.90;;;;;;4999382;28;20115;-82
2023/12/07 06:26:43;;;;;;;14.88;9.93;;;7.80;99.90;;;;;;5022883;28;20021;-81
2023/12/07 06:29:09;;;;;;;12.93;9.65;;;7.80;99.90;;;;;;4998354;28;20066;-80
2023/12/07 06:31:36;;;;;;;16.30;10.15;;;7.80;99.90;;;;;;5000355;28;20117;-81
2023/12/07 06:34:02;;;;;;;13.70;9.25;;;7.80;99.90;;;;;;4997676;28;20113;-80
2023/12/07 06:36:28;;;;;;;16.80;10.88;;;7.90;99.90;;;;;;4998017;28;20030;-80
2023/12/07 06:38:55;;;;;;;13.13;9.20;;;7.90;99.90;;;;;;4982004;28;20030;-84
2023/12/07 06:41:21;;;;;;;19.25;11.32;;;8.00;99.90;;;;;;4985535;28;20046;-84
2023/12/07 06:43:47;;;;;;;15.65;11.93;;;8.00;99.90;;;;;;5017355;28;20033;-81
2023/12/07 06:46:14;;;;;;;15.40;11.80;;;8.00;99.90;;;;;;5034536;28;20064;-81
2023/12/07 06:48:41;;;;;;;15.20;11.02;;;8.00;99.90;;;;;;4996665;28;20030;-82
2023/12/07 06:51:08;;;;;;;21.50;12.13;;;8.10;99.90;;;;;;5012749;28;20550;-81
2023/12/07 06:53:34;;;;;;;14.45;11.13;;;8.20;99.90;;;;;;5000281;28;20038;-82
2023/12/07 06:56:00;;;;;;;18.52;11.52;;;8.10;99.90;;;;;;5013092;28;20088;-82
2023/12/07 06:58:27;;;;;;;16.15;11.55;;;8.10;99.90;;;;;;4999750;28;20025;-82
2023/12/07 07:00:53;;;;;;;14.48;11.90;;;8.20;99.90;;;;;;4997134;28;20122;-84
2023/12/07 07:03:20;;;;;;;12.88;11.52;;;8.20;99.90;;;;;;4997295;28;20065;-82
2023/12/07 07:05:46;;;;;;;15.23;12.73;;;8.40;99.90;;;;;;4982440;28;20026;-82
2023/12/07 07:08:13;;;;;;;14.65;12.77;;;8.70;99.90;;;;;;5031620;28;20032;-82
2023/12/07 07:10:39;;;;;;;16.05;13.98;;;9.10;99.90;;;;;;5013273;28;20088;-81
2023/12/07 07:13:06;;;;;;;16.58;15.10;;;9.50;99.90;;;;;;4997143;28;20026;-82
2023/12/07 07:15:33;;;;;;;17.25;15.75;;;9.60;99.90;;;;;;5008038;28;20080;-81
2023/12/07 07:18:00;;;;;;;18.80;16.88;;;9.80;99.90;;;;;;5034359;28;20021;-82
2023/12/07 07:20:27;;;;;;;19.75;17.70;;;10.10;99.90;;;;;;5014053;28;20487;-82
2023/12/07 07:22:54;;;;;;;20.75;18.88;;;10.30;99.90;;;;;;5000306;28;20033;-82
2023/12/07 07:25:20;;;;;;;19.83;18.00;;;10.40;99.90;;;;;;5006875;28;20486;-81
2023/12/07 07:27:46;;;;;;;20.95;19.20;;;10.70;99.90;;;;;;4996529;28;20030;-82
2023/12/07 07:30:13;;;;;;;21.30;19.40;;;10.90;99.90;;;;;;4993826;28;20022;-82
2023/12/07 07:32:40;;;;;;;24.55;22.15;;;11.10;99.90;;;;;;5012941;28;20029;-82
2023/12/07 07:35:07;;;;;;;21.27;19.38;;;11.30;99.90;;;;;;5012898;28;20029;-82
2023/12/07 07:37:34;;;;;;;21.63;19.77;;;11.40;99.90;;;;;;4999622;28;20028;-81
2023/12/07 07:40:00;;;;;;;21.92;19.73;;;11.30;99.90;;;;;;5016168;28;20490;-82
2023/12/07 07:42:27;;;;;;;20.80;19.17;;;11.20;99.90;;;;;;5016124;28;20050;-81
2023/12/07 07:44:53;;;;;;;20.25;18.63;;;11.20;99.90;;;;;;5028251;28;20021;-82
2023/12/07 07:47:19;;;;;;;19.67;18.27;;;11.20;99.90;;;;;;4978320;28;20034;-82
2023/12/07 07:49:45;;;;;;;21.10;19.42;;;11.30;99.90;;;;;;4996510;28;20032;-82
2023/12/07 07:52:12;;;;;;;19.77;18.38;;;11.30;99.90;;;;;;4995911;28;20044;-82
2023/12/07 07:54:43;;;;;;;19.20;17.90;;;11.40;99.90;;;;;;4995734;28;20104;-82
2023/12/07 07:57:09;;;;;;;27.02;20.20;;;11.60;99.90;;;;;;5003436;28;20029;-82
2023/12/07 07:59:35;;;;;;;21.58;19.60;;;11.60;99.90;;;;;;5015960;28;20029;-82
2023/12/07 08:02:02;;;;;;;20.40;18.80;;;11.70;99.90;;;;;;5015619;28;20076;-82
2023/12/07 08:04:28;;;;;;;19.67;18.08;;;11.80;99.90;;;;;;5013073;28;20103;-82
2023/12/07 08:06:55;;;;;;;20.00;18.15;;;11.80;99.90;;;;;;4993107;28;20510;-82
2023/12/07 08:09:21;;;;;;;20.77;19.23;;;11.80;99.90;;;;;;4994480;28;20030;-82
2023/12/07 08:11:47;;;;;;;19.88;18.17;;;11.80;99.90;;;;;;4996272;28;20030;-82
2023/12/07 08:14:13;;;;;;;20.15;18.40;;;11.70;99.90;;;;;;4979682;28;20030;-82
2023/12/07 08:16:46;;;;;;;19.55;17.98;;;11.70;99.90;;;;;;4957816;28;20588;-82
2023/12/07 08:19:13;;;;;;;18.73;17.25;;;11.80;99.90;;;;;;4973771;28;20031;-82
2023/12/07 08:21:39;;;;;;;18.70;17.20;;;11.80;99.90;;;;;;4976516;28;20403;-82
2023/12/07 08:24:06;;;;;;;18.50;16.98;;;11.90;99.90;;;;;;4960476;28;20468;-82
2023/12/07 08:26:32;;;;;;;18.70;17.10;;;12.10;99.90;;;;;;4988197;28;20029;-82
2023/12/07 08:28:59;;;;;;;17.70;16.27;;;12.20;99.90;;;;;;4999213;28;20030;-82
2023/12/07 08:31:25;;;;;;;19.40;17.55;;;12.20;99.90;;;;;;5015259;28;20026;-81
2023/12/07 08:33:52;;;;;;;19.25;17.52;;;12.20;99.90;;;;;;4981504;28;20483;-82
2023/12/07 08:36:18;;;;;;;18.20;16.70;;;12.30;99.90;;;;;;5005681;28;20042;-82
2023/12/07 08:38:45;;;;;;;17.98;16.58;;;12.30;99.90;;;;;;4999022;28;20036;-83
2023/12/07 08:41:11;;;;;;;18.98;17.40;;;12.40;99.90;;;;;;4994380;28;20048;-81
2023/12/07 08:43:37;;;;;;;18.48;16.98;;;12.40;99.90;;;;;;4979736;28;20029;-82
2023/12/07 08:46:04;;;;;;;17.98;16.67;;;12.20;99.90;;;;;;4992379;28;20069;-81
2023/12/07 08:48:31;;;;;;;17.58;16.38;;;12.20;99.90;;;;;;4978953;28;20060;-82
2023/12/07 08:50:57;;;;;;;18.13;16.77;;;12.00;99.90;;;;;;4979598;28;20026;-82
2023/12/07 08:53:23;;;;;;;17.85;16.42;;;11.90;99.90;;;;;;4979613;28;20053;-81
2023/12/07 08:55:49;;;;;;;17.58;16.02;;;11.90;99.90;;;;;;4985374;28;20117;-81
2023/12/07 08:58:15;;;;;;;17.50;16.20;;;12.10;99.90;;;;;;4992253;28;20427;-81
2023/12/07 09:00:42;;;;;;;17.38;16.27;;;12.30;99.90;;;;;;4976215;28;20061;-81
2023/12/07 09:03:08;;;;;;;19.15;17.52;;;12.40;99.90;;;;;;4993203;28;20060;-81
2023/12/07 09:05:34;;;;;;;16.75;15.65;;;12.50;99.90;;;;;;4995444;28;20022;-83
2023/12/07 09:08:01;;;;;;;17.75;16.55;;;12.60;99.90;;;;;;5013088;28;20033;-82
2023/12/07 09:10:28;;;;;;;19.67;18.30;;;12.80;99.90;;;;;;4999526;28;20030;-83
2023/12/07 09:12:54;;;;;;;19.52;17.98;;;12.80;99.90;;;;;;5016416;28;20022;-83
2023/12/07 09:15:21;;;;;;;20.20;18.70;;;12.80;99.90;;;;;;4999216;28;20037;-83
2023/12/07 09:17:50;;;;;;;19.73;18.35;;;12.70;99.90;;;;;;4999627;28;20246;-84
2023/12/07 09:20:16;;;;;;;19.75;18.35;;;12.80;99.90;;;;;;4999329;28;20052;-82
2023/12/07 09:22:45;;;;;;;19.98;18.67;;;12.80;99.90;;;;;;5001812;28;20026;-83
2023/12/07 09:25:12;;;;;;;19.92;18.73;;;12.80;99.90;;;;;;4995916;28;20054;-83
2023/12/07 09:27:41;;;;;;;21.33;19.77;;;12.80;99.90;;;;;;5016813;28;20104;-83
2023/12/07 09:30:10;;;;;;;21.13;19.73;;;12.70;99.90;;;;;;4982943;28;20033;-83
2023/12/07 09:32:42;;;;;;;22.27;20.77;;;12.80;99.90;;;;;;4980178;28;20434;-83
2023/12/07 09:35:15;;;;;;;22.73;20.90;;;12.80;99.90;;;;;;4979370;28;20042;-83
2023/12/07 09:37:41;;;;;;;21.23;19.80;;;13.00;99.90;;;;;;4963599;28;20030;-82
2023/12/07 09:40:15;;;;;;;21.67;20.00;;;13.20;99.90;;;;;;4963373;28;20052;-83
2023/12/07 09:42:45;;;;;;;21.73;20.20;;;13.20;99.90;;;;;;4988227;28;20096;-83
2023/12/07 09:45:11;;;;;;;21.63;20.30;;;13.20;99.90;;;;;;4985253;28;20030;-83
2023/12/07 09:47:40;;;;;;;21.98;20.38;;;13.30;99.90;;;;;;5016612;28;20476;-83
2023/12/07 09:50:08;;;;;;;21.73;19.83;;;13.30;99.90;;;;;;4998944;28;20034;-83
2023/12/07 09:52:36;;;;;;;20.90;19.50;;;13.40;99.90;;;;;;4982568;28;20044;-83
2023/12/07 09:55:06;;;;;;;23.58;21.52;;;13.40;99.90;;;;;;4998107;28;20511;-82
2023/12/07 09:57:33;;;;;;;23.60;21.70;;;13.40;99.90;;;;;;5014844;28;20022;-83
2023/12/07 10:00:00;;;;;;;21.42;20.00;;;13.50;99.90;;;;;;4998761;28;20069;-82
2023/12/07 10:02:26;;;;;;;22.00;20.27;;;13.50;99.90;;;;;;5016176;28;20026;-83
2023/12/07 10:05:19;;;;;;;22.25;20.70;;;13.50;99.90;;;;;;4997368;28;20491;-83
2023/12/07 10:07:48;;;;;;;22.25;20.60;;;13.60;99.90;;;;;;5008965;28;20064;-84
2023/12/07 10:10:15;;;;;;;22.45;20.65;;;13.60;99.90;;;;;;5003856;28;20110;-83
2023/12/07 10:12:52;;;;;;;23.23;21.50;;;13.70;99.90;;;;;;5014594;28;20032;-83
2023/12/07 10:15:20;;;;;;;22.67;21.13;;;13.60;99.90;;;;;;5000832;28;20432;-83
2023/12/07 10:17:59;;;;;;;23.77;22.08;;;13.50;99.90;;;;;;4998230;28;20395;-83
2023/12/07 10:20:28;;;;;;;23.42;21.73;;;13.60;99.90;;;;;;5013509;28;20033;-82
2023/12/07 10:23:03;;;;;;;22.20;20.67;;;13.70;99.90;;;;;;4982072;28;20050;-83
2023/12/07 10:25:38;;;;;;;22.40;20.70;;;13.70;99.90;;;;;;4986851;28;20716;-83
2023/12/07 10:28:07;;;;;;;23.65;21.85;;;13.70;99.90;;;;;;4990727;28;20030;-83
2023/12/07 10:30:34;;;;;;;23.15;21.55;;;13.60;99.90;;;;;;4978648;28;20030;-82
2023/12/07 10:33:09;;;;;;;24.40;22.70;;;13.60;99.90;;;;;;5011063;28;20022;-83
2023/12/07 10:35:40;;;;;;;24.27;22.35;;;13.60;99.90;;;;;;4978197;28;20042;-83
2023/12/07 10:38:07;;;;;;;24.02;22.10;;;13.40;99.90;;;;;;4975187;28;20023;-83
2023/12/07 10:40:34;;;;;;;25.73;23.35;;;13.50;99.90;;;;;;4978192;28;20030;-83
2023/12/07 10:43:07;;;;;;;26.02;24.23;;;13.60;99.90;;;;;;4978335;28;20046;-83
2023/12/07 10:45:37;;;;;;;27.25;25.10;;;13.70;99.90;;;;;;4970297;28;20088;-83
2023/12/07 10:48:06;;;;;;;27.15;25.17;;;13.50;99.90;;;;;;4981577;28;20034;-83
2023/12/07 10:50:37;;;;;;;26.95;24.60;;;13.50;99.90;;;;;;4981572;28;20050;-82
2023/12/07 10:53:27;;;;;;;25.42;23.70;;;13.60;99.90;;;;;;4997721;28;20083;-83
2023/12/07 10:55:59;;;;;;;24.70;22.98;;;13.60;99.90;;;;;;4977992;28;20431;-83
2023/12/07 10:58:26;;;;;;;24.92;22.88;;;13.80;99.90;;;;;;4978343;28;20031;-83
2023/12/07 11:00:54;;;;;;;24.58;22.88;;;13.90;99.90;;;;;;4962108;28;20365;-83
2023/12/07 11:03:21;;;;;;;22.88;21.40;;;14.10;99.90;;;;;;4980050;28;20109;-83
2023/12/07 11:05:49;;;;;;;23.15;21.50;;;14.10;99.90;;;;;;4989542;28;20511;-82
2023/12/07 11:08:43;;;;;;;23.75;22.10;;;14.10;99.90;;;;;;4977988;28;20395;-83
2023/12/07 11:11:28;;;;;;;24.25;22.55;;;14.20;99.90;;;;;;4978012;28;20031;-84
2023/12/07 11:14:07;;;;;;;23.80;22.27;;;14.40;99.90;;;;;;4977704;28;20026;-83
2023/12/07 11:16:37;;;;;;;23.67;22.15;;;14.40;99.90;;;;;;5005090;28;20045;-83
2023/12/07 11:19:07;;;;;;;24.85;23.35;;;14.40;99.90;;;;;;4991230;28;20019;-83
2023/12/07 11:21:34;;;;;;;24.67;23.00;;;14.40;99.90;;;;;;4977474;28;20076;-83
2023/12/07 11:24:02;;;;;;;25.48;23.45;;;14.50;99.90;;;;;;4977549;28;20026;-83
2023/12/07 11:26:28;;;;;;;24.23;22.52;;;14.50;99.90;;;;;;4997116;28;20060;-83
2023/12/07 11:28:56;;;;;;;25.25;23.65;;;14.70;99.90;;;;;;4997455;28;20018;-84
2023/12/07 11:31:23;;;;;;;26.13;24.30;;;14.80;99.90;;;;;;4996927;28;20052;-85
2023/12/07 11:33:49;;;;;;;25.60;24.15;;;15.00;99.90;;;;;;4997195;28;20030;-85
2023/12/07 11:36:17;;;;;;;26.08;24.30;;;15.00;99.90;;;;;;4981415;28;20196;-85
2023/12/07 11:39:02;;;;;;;25.38;23.48;;;14.90;99.90;;;;;;4981106;28;20113;-85
2023/12/07 11:41:34;;;;;;;24.67;23.17;;;14.80;99.90;;;;;;4984514;28;20057;-84
2023/12/07 11:44:01;;;;;;;25.92;24.20;;;14.90;99.90;;;;;;4992687;28;20025;-85
2023/12/07 11:46:27;;;;;;;28.75;26.70;;;15.00;99.90;;;;;;5013287;28;20030;-85
2023/12/07 11:48:59;;;;;;;29.35;27.15;;;14.90;99.90;;;;;;4997436;28;20495;-84
2023/12/07 11:51:26;;;;;;;27.63;25.98;;;14.70;99.90;;;;;;4995769;28;20376;-85
2023/12/07 11:53:52;;;;;;;30.92;28.73;;;14.70;99.90;;;;;;4991370;28;20018;-84
2023/12/07 11:56:21;;;;;;;31.13;28.35;;;14.40;99.90;;;;;;4993568;28;20065;-85
2023/12/07 11:58:48;;;;;;;29.83;27.75;;;14.10;99.90;;;;;;4971511;28;20542;-85
2023/12/07 12:01:17;;;;;;;27.48;25.45;;;14.00;99.90;;;;;;4993680;28;20052;-84
2023/12/07 12:03:43;;;;;;;28.25;26.23;;;13.90;99.90;;;;;;4970692;28;20420;-85
2023/12/07 12:06:11;;;;;;;26.48;24.88;;;14.00;99.90;;;;;;4993444;28;20022;-85
2023/12/07 12:08:41;;;;;;;29.75;27.45;;;14.20;99.90;;;;;;4969944;28;20034;-84
2023/12/07 12:11:08;;;;;;;28.98;26.90;;;14.40;99.90;;;;;;4993937;28;20073;-84
2023/12/07 12:13:35;;;;;;;28.77;26.25;;;14.40;99.90;;;;;;4977233;28;20386;-85
2023/12/07 12:16:02;;;;;;;30.20;27.67;;;14.50;99.90;;;;;;5003941;28;20036;-85
2023/12/07 12:18:29;;;;;;;28.30;26.40;;;14.70;99.90;;;;;;4996781;28;20026;-85
2023/12/07 12:20:57;;;;;;;27.15;25.20;;;14.90;99.90;;;;;;5007429;28;20029;-84
2023/12/07 12:23:24;;;;;;;27.77;25.70;;;14.90;99.90;;;;;;4996820;28;20033;-84
2023/12/07 12:25:51;;;;;;;27.83;25.98;;;14.90;99.90;;;;;;4988438;28;20034;-84
2023/12/07 12:28:19;;;;;;;28.27;26.42;;;14.80;99.90;;;;;;4996364;28;20030;-84
2023/12/07 12:30:45;;;;;;;29.30;27.05;;;14.40;99.90;;;;;;4986306;28;20026;-85
2023/12/07 12:33:13;;;;;;;27.08;25.38;;;13.90;99.90;;;;;;4984363;28;20034;-83
2023/12/07 12:35:41;;;;;;;26.73;24.90;;;13.60;99.90;;;;;;4993102;28;20112;-84
2023/12/07 12:38:11;;;;;;;26.95;25.15;;;13.50;99.90;;;;;;5012274;28;20045;-83
2023/12/07 12:40:38;;;;;;;27.55;25.42;;;13.40;99.90;;;;;;4996223;28;20072;-82
2023/12/07 12:43:05;;;;;;;26.70;24.85;;;13.40;99.90;;;;;;5010593;28;20053;-83